Pagrindinis puslapis
METAR-TAF:

METAR-TAF

Oro uostai :

Marathon, Florida, Jungtinės Amerikos Valstijos

platuma: 24-43-33N, ilguma: 081-02-52W, Aukštis: 2 m

Dabartinis oras

Ataskaita buvo paskelbta 38 minutes, ne 16:53 UTC
Vėjas 5 kt iš Vakarų
Temperatūra 31°C
Drėgmė 66%
Slėgis 1014 hPa
Matomumas: 16.1 km
Giedras dangus

METAR: KMTH 171653Z AUTO 26005KT 10SM CLR 31/24 A2995 RMK AO2 SLP140 T03110239

Laikas: 13:31 (17:31 UTC)

Prognozė

Ataskaita buvo paskelbta 3 valandos ir 14 minutes, ne 14:17 UTC
Prognozė galioja nuo 17 metu 14 UTC su 18 metu 12 UTC
Vėjas 5 kt iš Vakarų
Matomumas: 10 km
Išsisklaidę debesys ne aukštis 2500 ft
Nuo 17 metu 1800 UTC
Vėjas 5 kt iš Vakarų/Pietvakarių
Matomumas: 10 km
Mažai debesys ne aukštis 2500 ft

TAF: KMTH 171417Z 1714/1812 27005KT P6SM SCT025 FM171800 25005KT P6SM FEW025

Orai ataskaitas ir orų prognozės (METAR, TAF).

turimą stotys yra geltonos ir raudonos taškus žemėlapyje.

Perkelti pele per norėdami pamatyti stoties vardą.

Tada spustelėkite, norėdami matyti oro stebėjimo ir prognozės.

Norėdami pakeisti žemėlapį: spustelėkite ant žalios mygtukų su juodo kryžiaus žemyn,; žalią mygtuką su brūkšneliu, jei norite nutolinti; arba žalių rodyklių gretimoms žemėlapius.


METAR-TAF: